sensor_id;sensor_type;location;lat;lon;timestamp;pressure;altitude;pressure_sealevel;temperature;humidity
75409;BME280;63979;55.644;37.734;2023-07-13T00:00:04;99275.41;;;14.42;66.52
75409;BME280;63979;55.644;37.734;2023-07-13T00:05:10;99275.00;;;14.46;66.13
75409;BME280;63979;55.644;37.734;2023-07-13T00:10:11;99273.72;;;14.41;66.30
75409;BME280;63979;55.644;37.734;2023-07-13T00:15:16;99283.59;;;14.40;65.33
75409;BME280;63979;55.644;37.734;2023-07-13T00:20:18;99272.31;;;14.46;65.28
75409;BME280;63979;55.644;37.734;2023-07-13T00:25:23;99288.72;;;14.62;64.95
75409;BME280;63979;55.644;37.734;2023-07-13T00:30:24;99281.63;;;14.61;65.16
75409;BME280;63979;55.644;37.734;2023-07-13T00:35:26;99285.03;;;14.44;65.29
75409;BME280;63979;55.644;37.734;2023-07-13T00:40:27;99284.19;;;14.44;65.40
75409;BME280;63979;55.644;37.734;2023-07-13T00:50:30;99250.97;;;14.25;65.67
75409;BME280;63979;55.644;37.734;2023-07-13T00:55:31;99278.09;;;14.32;65.70
75409;BME280;63979;55.644;37.734;2023-07-13T01:00:35;99281.91;;;14.49;65.39
75409;BME280;63979;55.644;37.734;2023-07-13T01:05:37;99263.13;;;14.49;65.39
75409;BME280;63979;55.644;37.734;2023-07-13T01:10:38;99273.56;;;14.42;65.90
75409;BME280;63979;55.644;37.734;2023-07-13T01:15:44;99266.38;;;14.33;66.06
75409;BME280;63979;55.644;37.734;2023-07-13T01:20:53;99278.81;;;14.34;66.09
75409;BME280;63979;55.644;37.734;2023-07-13T01:25:54;99262.13;;;14.40;66.02
75409;BME280;63979;55.644;37.734;2023-07-13T01:30:57;99257.47;;;14.23;66.67
75409;BME280;63979;55.644;37.734;2023-07-13T01:35:58;99249.41;;;14.32;66.85
75409;BME280;63979;55.644;37.734;2023-07-13T01:41:00;99250.25;;;14.33;66.76
75409;BME280;63979;55.644;37.734;2023-07-13T01:46:00;99262.13;;;14.30;67.10
75409;BME280;63979;55.644;37.734;2023-07-13T01:51:01;99254.06;;;14.21;67.46
75409;BME280;63979;55.644;37.734;2023-07-13T01:56:03;99252.69;;;14.26;67.36
75409;BME280;63979;55.644;37.734;2023-07-13T02:01:04;99248.44;;;14.24;67.58
75409;BME280;63979;55.644;37.734;2023-07-13T02:06:05;99240.38;;;14.24;67.42
75409;BME280;63979;55.644;37.734;2023-07-13T02:11:06;99253.94;;;14.32;67.38
75409;BME280;63979;55.644;37.734;2023-07-13T02:16:07;99249.13;;;14.35;67.78
75409;BME280;63979;55.644;37.734;2023-07-13T02:21:08;99245.31;;;14.38;67.55
75409;BME280;63979;55.644;37.734;2023-07-13T02:26:10;99243.47;;;14.39;67.37
75409;BME280;63979;55.644;37.734;2023-07-13T02:31:13;99251.13;;;14.43;67.33
75409;BME280;63979;55.644;37.734;2023-07-13T02:36:15;99237.09;;;14.49;67.33
75409;BME280;63979;55.644;37.734;2023-07-13T02:41:16;99223.69;;;14.49;67.22
75409;BME280;63979;55.644;37.734;2023-07-13T02:46:18;99237.53;;;14.64;67.03
75409;BME280;63979;55.644;37.734;2023-07-13T02:51:20;99227.78;;;14.63;67.00
75409;BME280;63979;55.644;37.734;2023-07-13T02:56:27;99218.28;;;14.69;66.96
75409;BME280;63979;55.644;37.734;2023-07-13T03:01:29;99233.53;;;14.68;66.83
75409;BME280;63979;55.644;37.734;2023-07-13T03:06:31;99233.94;;;14.73;66.81
75409;BME280;63979;55.644;37.734;2023-07-13T03:11:33;99227.63;;;14.64;67.08
75409;BME280;63979;55.644;37.734;2023-07-13T03:16:34;99229.75;;;14.51;67.46
75409;BME280;63979;55.644;37.734;2023-07-13T03:21:35;99229.19;;;14.57;67.71
75409;BME280;63979;55.644;37.734;2023-07-13T03:26:36;99222.84;;;14.58;67.70
75409;BME280;63979;55.644;37.734;2023-07-13T03:31:38;99233.13;;;14.53;68.16
75409;BME280;63979;55.644;37.734;2023-07-13T03:36:38;99239.50;;;14.52;68.32
75409;BME280;63979;55.644;37.734;2023-07-13T03:41:39;99244.88;;;14.62;67.81
75409;BME280;63979;55.644;37.734;2023-07-13T03:46:41;99230.31;;;14.64;67.70
75409;BME280;63979;55.644;37.734;2023-07-13T03:51:42;99236.28;;;14.58;67.93
75409;BME280;63979;55.644;37.734;2023-07-13T03:56:43;99241.47;;;14.70;67.64
75409;BME280;63979;55.644;37.734;2023-07-13T04:01:44;99233.63;;;14.86;67.34
75409;BME280;63979;55.644;37.734;2023-07-13T04:06:45;99240.19;;;15.11;66.78
75409;BME280;63979;55.644;37.734;2023-07-13T04:11:46;99234.50;;;15.14;66.25
75409;BME280;63979;55.644;37.734;2023-07-13T04:16:47;99252.25;;;15.34;66.02
75409;BME280;63979;55.644;37.734;2023-07-13T04:21:48;99240.97;;;15.48;65.44
75409;BME280;63979;55.644;37.734;2023-07-13T04:26:49;99237.44;;;15.48;65.04
75409;BME280;63979;55.644;37.734;2023-07-13T04:31:50;99230.06;;;15.50;65.30
75409;BME280;63979;55.644;37.734;2023-07-13T04:36:52;99241.06;;;15.66;64.78
75409;BME280;63979;55.644;37.734;2023-07-13T04:41:53;99236.66;;;15.83;64.26
75409;BME280;63979;55.644;37.734;2023-07-13T04:46:56;99238.75;;;16.07;63.65
75409;BME280;63979;55.644;37.734;2023-07-13T04:51:57;99234.13;;;16.17;63.21
75409;BME280;63979;55.644;37.734;2023-07-13T04:56:58;99198.59;;;15.96;63.60
75409;BME280;63979;55.644;37.734;2023-07-13T05:01:59;99239.38;;;16.01;63.76
75409;BME280;63979;55.644;37.734;2023-07-13T05:07:00;99232.31;;;16.00;63.34
75409;BME280;63979;55.644;37.734;2023-07-13T05:12:01;99244.06;;;16.16;63.35
75409;BME280;63979;55.644;37.734;2023-07-13T05:17:03;99242.78;;;16.46;62.57
75409;BME280;63979;55.644;37.734;2023-07-13T05:22:03;99245.66;;;17.31;60.48
75409;BME280;63979;55.644;37.734;2023-07-13T05:27:05;99250.50;;;17.61;58.81
75409;BME280;63979;55.644;37.734;2023-07-13T05:32:06;99254.00;;;17.88;58.82
75409;BME280;63979;55.644;37.734;2023-07-13T05:37:07;99216.38;;;18.43;57.24
75409;BME280;63979;55.644;37.734;2023-07-13T05:42:09;99253.19;;;18.68;54.60
75409;BME280;63979;55.644;37.734;2023-07-13T05:47:10;99239.19;;;18.24;55.67
75409;BME280;63979;55.644;37.734;2023-07-13T05:52:11;99232.25;;;18.30;54.88
75409;BME280;63979;55.644;37.734;2023-07-13T05:57:12;99240.88;;;18.42;55.18
75409;BME280;63979;55.644;37.734;2023-07-13T06:02:14;99230.06;;;18.74;53.64
75409;BME280;63979;55.644;37.734;2023-07-13T06:07:15;99230.66;;;19.00;53.00
75409;BME280;63979;55.644;37.734;2023-07-13T06:12:16;99199.59;;;18.88;52.44
75409;BME280;63979;55.644;37.734;2023-07-13T06:17:16;99234.69;;;19.13;51.91
75409;BME280;63979;55.644;37.734;2023-07-13T06:22:18;99230.06;;;19.69;49.96
75409;BME280;63979;55.644;37.734;2023-07-13T06:27:19;99211.91;;;20.00;47.84
75409;BME280;63979;55.644;37.734;2023-07-13T06:32:21;99202.28;;;20.20;49.32
75409;BME280;63979;55.644;37.734;2023-07-13T06:37:22;99196.97;;;20.04;47.94
75409;BME280;63979;55.644;37.734;2023-07-13T06:42:23;99206.69;;;20.21;48.29
75409;BME280;63979;55.644;37.734;2023-07-13T06:47:24;99205.31;;;20.78;46.99
75409;BME280;63979;55.644;37.734;2023-07-13T06:52:25;99209.00;;;21.00;45.84
75409;BME280;63979;55.644;37.734;2023-07-13T06:57:26;99176.59;;;20.31;44.78
75409;BME280;63979;55.644;37.734;2023-07-13T07:02:28;99198.03;;;19.72;46.86
75409;BME280;63979;55.644;37.734;2023-07-13T07:07:29;99199.78;;;19.65;46.98
75409;BME280;63979;55.644;37.734;2023-07-13T07:12:30;99223.03;;;19.51;47.22
75409;BME280;63979;55.644;37.734;2023-07-13T07:17:31;99205.25;;;19.18;47.39
75409;BME280;63979;55.644;37.734;2023-07-13T07:22:32;99210.44;;;18.80;48.90
75409;BME280;63979;55.644;37.734;2023-07-13T07:27:33;99211.75;;;18.92;49.09
75409;BME280;63979;55.644;37.734;2023-07-13T07:32:35;99220.69;;;19.01;48.99
75409;BME280;63979;55.644;37.734;2023-07-13T07:37:36;99209.66;;;19.19;47.96
75409;BME280;63979;55.644;37.734;2023-07-13T07:42:37;99227.56;;;19.20;47.76
75409;BME280;63979;55.644;37.734;2023-07-13T07:47:38;99225.59;;;19.45;47.41
75409;BME280;63979;55.644;37.734;2023-07-13T07:52:39;99227.16;;;19.31;48.56
75409;BME280;63979;55.644;37.734;2023-07-13T07:57:40;99221.59;;;18.77;48.55
75409;BME280;63979;55.644;37.734;2023-07-13T08:02:41;99217.03;;;18.69;50.50
75409;BME280;63979;55.644;37.734;2023-07-13T08:07:42;99232.75;;;18.66;51.75
75409;BME280;63979;55.644;37.734;2023-07-13T08:12:43;99231.56;;;18.52;52.48
75409;BME280;63979;55.644;37.734;2023-07-13T08:17:44;99232.75;;;18.50;53.76
75409;BME280;63979;55.644;37.734;2023-07-13T08:22:45;99229.91;;;18.19;54.31
75409;BME280;63979;55.644;37.734;2023-07-13T08:27:47;99233.59;;;18.34;53.09
75409;BME280;63979;55.644;37.734;2023-07-13T08:32:48;99212.50;;;18.13;52.47
75409;BME280;63979;55.644;37.734;2023-07-13T08:37:49;99228.38;;;18.16;51.35
75409;BME280;63979;55.644;37.734;2023-07-13T08:42:55;99231.25;;;18.31;51.22
75409;BME280;63979;55.644;37.734;2023-07-13T08:53:24;99244.06;;;18.21;50.56
75409;BME280;63979;55.644;37.734;2023-07-13T08:58:30;99225.00;;;18.14;51.20
75409;BME280;63979;55.644;37.734;2023-07-13T09:03:42;99245.25;;;18.18;51.31
75409;BME280;63979;55.644;37.734;2023-07-13T09:09:20;99252.69;;;18.08;53.53
75409;BME280;63979;55.644;37.734;2023-07-13T09:14:42;99216.22;;;18.04;55.00
75409;BME280;63979;55.644;37.734;2023-07-13T09:19:46;99246.94;;;18.68;55.35
75409;BME280;63979;55.644;37.734;2023-07-13T09:25:06;99270.97;;;18.79;56.44
75409;BME280;63979;55.644;37.734;2023-07-13T09:35:20;99242.22;;;18.78;56.96
75409;BME280;63979;55.644;37.734;2023-07-13T09:40:35;99254.81;;;19.18;57.11
75409;BME280;63979;55.644;37.734;2023-07-13T09:45:39;99267.69;;;19.00;57.86
75409;BME280;63979;55.644;37.734;2023-07-13T09:50:40;99277.88;;;18.90;58.39
75409;BME280;63979;55.644;37.734;2023-07-13T09:55:44;99272.31;;;18.67;57.39
75409;BME280;63979;55.644;37.734;2023-07-13T10:00:56;99278.03;;;18.23;59.09
75409;BME280;63979;55.644;37.734;2023-07-13T10:06:14;99283.88;;;18.02;61.52
75409;BME280;63979;55.644;37.734;2023-07-13T10:11:26;99278.63;;;17.93;61.40
75409;BME280;63979;55.644;37.734;2023-07-13T10:16:30;99285.38;;;17.81;61.25
75409;BME280;63979;55.644;37.734;2023-07-13T10:21:44;99287.66;;;17.33;62.08
75409;BME280;63979;55.644;37.734;2023-07-13T10:26:58;99278.00;;;17.23;62.79
75409;BME280;63979;55.644;37.734;2023-07-13T10:32:01;99280.19;;;17.19;62.30
75409;BME280;63979;55.644;37.734;2023-07-13T10:37:02;99293.63;;;17.11;63.85
75409;BME280;63979;55.644;37.734;2023-07-13T10:42:11;99301.78;;;16.93;64.29
75409;BME280;63979;55.644;37.734;2023-07-13T10:47:15;99298.59;;;16.72;64.70
75409;BME280;63979;55.644;37.734;2023-07-13T10:52:41;99301.81;;;16.58;66.43
75409;BME280;63979;55.644;37.734;2023-07-13T10:57:44;99276.59;;;16.41;66.11
75409;BME280;63979;55.644;37.734;2023-07-13T11:02:56;99307.66;;;16.53;66.56
75409;BME280;63979;55.644;37.734;2023-07-13T11:08:35;99305.50;;;16.57;67.91
75409;BME280;63979;55.644;37.734;2023-07-13T11:24:15;99301.28;;;16.18;68.38
75409;BME280;63979;55.644;37.734;2023-07-13T11:34:40;99302.16;;;16.19;69.69
75409;BME280;63979;55.644;37.734;2023-07-13T11:39:43;99293.22;;;16.36;70.57
75409;BME280;63979;55.644;37.734;2023-07-13T11:44:50;99250.03;;;16.28;70.48
75409;BME280;63979;55.644;37.734;2023-07-13T11:49:55;99280.03;;;16.51;68.89
75409;BME280;63979;55.644;37.734;2023-07-13T11:55:00;99265.13;;;16.39;69.16
75409;BME280;63979;55.644;37.734;2023-07-13T12:00:12;99275.28;;;16.45;69.89
75409;BME280;63979;55.644;37.734;2023-07-13T12:05:18;99238.25;;;16.29;69.57
75409;BME280;63979;55.644;37.734;2023-07-13T12:10:26;99289.44;;;16.47;69.05
75409;BME280;63979;55.644;37.734;2023-07-13T12:15:45;99280.91;;;16.16;69.24
75409;BME280;63979;55.644;37.734;2023-07-13T12:20:48;99280.75;;;16.17;70.40
75409;BME280;63979;55.644;37.734;2023-07-13T12:25:50;99287.75;;;16.10;71.42
75409;BME280;63979;55.644;37.734;2023-07-13T12:30:57;99267.38;;;16.08;70.49
75409;BME280;63979;55.644;37.734;2023-07-13T12:36:05;99275.53;;;16.16;69.97
75409;BME280;63979;55.644;37.734;2023-07-13T12:41:08;99239.38;;;16.01;68.58
75409;BME280;63979;55.644;37.734;2023-07-13T12:46:21;99274.53;;;16.35;69.11
75409;BME280;63979;55.644;37.734;2023-07-13T12:51:25;99275.13;;;16.46;68.41
75409;BME280;63979;55.644;37.734;2023-07-13T12:56:27;99272.53;;;16.63;69.12
75409;BME280;63979;55.644;37.734;2023-07-13T13:01:33;99273.75;;;16.42;68.03
75409;BME280;63979;55.644;37.734;2023-07-13T13:06:35;99282.66;;;16.43;68.16
75409;BME280;63979;55.644;37.734;2023-07-13T13:11:37;99284.59;;;16.15;69.22
75409;BME280;63979;55.644;37.734;2023-07-13T13:16:46;99284.44;;;16.16;70.63
75409;BME280;63979;55.644;37.734;2023-07-13T13:21:50;99265.19;;;16.29;69.72
75409;BME280;63979;55.644;37.734;2023-07-13T13:26:53;99254.50;;;16.19;71.14
75409;BME280;63979;55.644;37.734;2023-07-13T13:31:56;99265.06;;;16.13;70.92
75409;BME280;63979;55.644;37.734;2023-07-13T13:36:58;99251.31;;;15.98;69.84
75409;BME280;63979;55.644;37.734;2023-07-13T13:41:59;99251.03;;;15.91;70.44
75409;BME280;63979;55.644;37.734;2023-07-13T13:47:00;99254.28;;;16.13;69.50
75409;BME280;63979;55.644;37.734;2023-07-13T13:52:02;99253.88;;;16.26;69.49
75409;BME280;63979;55.644;37.734;2023-07-13T13:57:04;99260.13;;;16.26;69.38
75409;BME280;63979;55.644;37.734;2023-07-13T14:02:25;99249.03;;;15.94;69.22
75409;BME280;63979;55.644;37.734;2023-07-13T14:07:26;99245.34;;;15.95;70.67
75409;BME280;63979;55.644;37.734;2023-07-13T14:12:28;99253.34;;;16.22;70.09
75409;BME280;63979;55.644;37.734;2023-07-13T14:17:31;99249.59;;;16.15;70.18
75409;BME280;63979;55.644;37.734;2023-07-13T14:22:32;99251.91;;;16.10;71.85
75409;BME280;63979;55.644;37.734;2023-07-13T14:27:32;99245.97;;;15.88;72.44
75409;BME280;63979;55.644;37.734;2023-07-13T14:32:33;99236.97;;;15.80;72.84
75409;BME280;63979;55.644;37.734;2023-07-13T14:37:35;99221.59;;;15.90;73.29
75409;BME280;63979;55.644;37.734;2023-07-13T14:42:36;99243.13;;;15.90;72.49
75409;BME280;63979;55.644;37.734;2023-07-13T14:47:37;99236.13;;;15.79;72.16
75409;BME280;63979;55.644;37.734;2023-07-13T14:52:38;99230.59;;;15.81;71.16
75409;BME280;63979;55.644;37.734;2023-07-13T14:57:39;99245.75;;;15.82;71.88
75409;BME280;63979;55.644;37.734;2023-07-13T15:02:42;99243.66;;;15.76;70.93
75409;BME280;63979;55.644;37.734;2023-07-13T15:07:45;99242.06;;;15.83;71.02
75409;BME280;63979;55.644;37.734;2023-07-13T15:12:46;99239.75;;;15.88;71.87
75409;BME280;63979;55.644;37.734;2023-07-13T15:17:47;99237.50;;;15.83;72.78
75409;BME280;63979;55.644;37.734;2023-07-13T15:22:49;99255.44;;;15.93;73.08
75409;BME280;63979;55.644;37.734;2023-07-13T15:27:50;99251.59;;;16.13;73.16
75409;BME280;63979;55.644;37.734;2023-07-13T15:32:52;99247.75;;;16.15;71.43
75409;BME280;63979;55.644;37.734;2023-07-13T15:37:53;99244.97;;;16.25;71.58
75409;BME280;63979;55.644;37.734;2023-07-13T15:42:55;99236.28;;;16.13;72.33
75409;BME280;63979;55.644;37.734;2023-07-13T15:47:56;99221.41;;;16.27;72.25
75409;BME280;63979;55.644;37.734;2023-07-13T15:52:58;99227.41;;;16.39;72.92
75409;BME280;63979;55.644;37.734;2023-07-13T15:57:59;99228.34;;;16.30;71.05
75409;BME280;63979;55.644;37.734;2023-07-13T16:03:01;99230.28;;;16.19;71.70
75409;BME280;63979;55.644;37.734;2023-07-13T16:08:02;99231.38;;;16.09;72.82
75409;BME280;63979;55.644;37.734;2023-07-13T16:13:04;99239.50;;;16.17;71.93
75409;BME280;63979;55.644;37.734;2023-07-13T16:18:05;99238.34;;;16.19;73.23
75409;BME280;63979;55.644;37.734;2023-07-13T16:23:08;99234.34;;;15.88;73.89
75409;BME280;63979;55.644;37.734;2023-07-13T16:28:12;99236.59;;;15.75;74.91
75409;BME280;63979;55.644;37.734;2023-07-13T16:33:13;99227.44;;;15.85;75.08
75409;BME280;63979;55.644;37.734;2023-07-13T16:38:21;99175.88;;;15.45;75.26
75409;BME280;63979;55.644;37.734;2023-07-13T16:43:24;99230.13;;;15.85;74.82
75409;BME280;63979;55.644;37.734;2023-07-13T16:48:26;99219.91;;;15.89;75.22
75409;BME280;63979;55.644;37.734;2023-07-13T16:53:30;99229.50;;;15.91;75.92
75409;BME280;63979;55.644;37.734;2023-07-13T16:58:34;99210.84;;;15.72;75.68
75409;BME280;63979;55.644;37.734;2023-07-13T17:03:35;99229.97;;;15.87;76.00
75409;BME280;63979;55.644;37.734;2023-07-13T17:08:36;99217.28;;;15.79;76.66
75409;BME280;63979;55.644;37.734;2023-07-13T17:13:37;99220.09;;;15.60;77.18
75409;BME280;63979;55.644;37.734;2023-07-13T17:18:38;99185.00;;;15.34;77.45
75409;BME280;63979;55.644;37.734;2023-07-13T17:23:39;99212.91;;;15.51;77.60
75409;BME280;63979;55.644;37.734;2023-07-13T17:28:40;99218.22;;;15.43;77.73
75409;BME280;63979;55.644;37.734;2023-07-13T17:33:44;99212.59;;;15.36;78.01
75409;BME280;63979;55.644;37.734;2023-07-13T17:38:48;99213.63;;;15.25;78.29
75409;BME280;63979;55.644;37.734;2023-07-13T17:43:57;99211.44;;;15.39;78.66
75409;BME280;63979;55.644;37.734;2023-07-13T17:48:58;99228.13;;;15.42;78.73
75409;BME280;63979;55.644;37.734;2023-07-13T17:54:00;99226.97;;;15.45;78.35
75409;BME280;63979;55.644;37.734;2023-07-13T17:59:01;99212.91;;;15.51;79.04
75409;BME280;63979;55.644;37.734;2023-07-13T18:04:02;99163.00;;;15.21;79.57
75409;BME280;63979;55.644;37.734;2023-07-13T18:09:20;99204.16;;;15.31;78.82
75409;BME280;63979;55.644;37.734;2023-07-13T18:14:21;99217.81;;;15.38;78.93
75409;BME280;63979;55.644;37.734;2023-07-13T18:19:33;99211.53;;;15.47;79.18
75409;BME280;63979;55.644;37.734;2023-07-13T18:24:36;99220.13;;;15.33;79.67
75409;BME280;63979;55.644;37.734;2023-07-13T18:29:37;99212.66;;;15.26;80.04
75409;BME280;63979;55.644;37.734;2023-07-13T18:34:40;99178.78;;;15.06;79.72
75409;BME280;63979;55.644;37.734;2023-07-13T18:39:54;99242.56;;;15.41;79.50
75409;BME280;63979;55.644;37.734;2023-07-13T18:44:55;99216.59;;;15.50;79.62
75409;BME280;63979;55.644;37.734;2023-07-13T18:49:57;99244.13;;;15.71;79.03
75409;BME280;63979;55.644;37.734;2023-07-13T18:54:59;99233.91;;;15.75;80.10
75409;BME280;63979;55.644;37.734;2023-07-13T19:00:00;99251.59;;;15.77;78.63
75409;BME280;63979;55.644;37.734;2023-07-13T19:05:01;99252.66;;;15.84;78.68
75409;BME280;63979;55.644;37.734;2023-07-13T19:10:04;99240.91;;;15.85;78.04
75409;BME280;63979;55.644;37.734;2023-07-13T19:15:17;99226.75;;;15.83;78.36
75409;BME280;63979;55.644;37.734;2023-07-13T19:20:19;99220.22;;;15.86;78.61
75409;BME280;63979;55.644;37.734;2023-07-13T19:25:24;99248.88;;;15.95;78.88
75409;BME280;63979;55.644;37.734;2023-07-13T19:30:26;99244.81;;;15.91;78.46
75409;BME280;63979;55.644;37.734;2023-07-13T19:35:27;99235.81;;;15.82;78.96
75409;BME280;63979;55.644;37.734;2023-07-13T19:40:29;99241.75;;;15.86;78.02
75409;BME280;63979;55.644;37.734;2023-07-13T19:45:30;99239.91;;;15.86;78.60
75409;BME280;63979;55.644;37.734;2023-07-13T19:50:31;99220.75;;;15.72;78.36
75409;BME280;63979;55.644;37.734;2023-07-13T19:55:33;99234.22;;;15.72;78.22
75409;BME280;63979;55.644;37.734;2023-07-13T20:00:34;99256.50;;;15.82;78.67
75409;BME280;63979;55.644;37.734;2023-07-13T20:05:35;99243.06;;;15.82;77.54
75409;BME280;63979;55.644;37.734;2023-07-13T20:10:37;99234.44;;;15.78;77.72
75409;BME280;63979;55.644;37.734;2023-07-13T20:15:38;99250.91;;;15.75;77.54
75409;BME280;63979;55.644;37.734;2023-07-13T20:20:40;99257.66;;;15.79;76.91
75409;BME280;63979;55.644;37.734;2023-07-13T20:25:46;99263.28;;;15.86;77.06
75409;BME280;63979;55.644;37.734;2023-07-13T20:30:51;99276.03;;;15.84;77.80
75409;BME280;63979;55.644;37.734;2023-07-13T20:35:55;99270.34;;;15.87;77.48
75409;BME280;63979;55.644;37.734;2023-07-13T20:41:00;99266.34;;;15.91;77.28
75409;BME280;63979;55.644;37.734;2023-07-13T20:46:02;99270.59;;;15.94;76.61
75409;BME280;63979;55.644;37.734;2023-07-13T20:51:10;99262.75;;;15.82;76.68
75409;BME280;63979;55.644;37.734;2023-07-13T20:56:16;99257.34;;;15.82;76.67
75409;BME280;63979;55.644;37.734;2023-07-13T21:06:19;99264.97;;;15.87;76.00
75409;BME280;63979;55.644;37.734;2023-07-13T21:11:20;99272.66;;;15.82;75.67
75409;BME280;63979;55.644;37.734;2023-07-13T21:16:27;99259.03;;;15.83;75.34
75409;BME280;63979;55.644;37.734;2023-07-13T21:21:30;99264.75;;;15.80;75.28
75409;BME280;63979;55.644;37.734;2023-07-13T21:26:31;99268.28;;;15.81;75.54
75409;BME280;63979;55.644;37.734;2023-07-13T21:31:34;99243.22;;;15.53;75.76
75409;BME280;63979;55.644;37.734;2023-07-13T21:36:36;99252.44;;;15.78;75.37
75409;BME280;63979;55.644;37.734;2023-07-13T21:41:37;99256.28;;;15.75;75.73
75409;BME280;63979;55.644;37.734;2023-07-13T21:46:38;99248.13;;;15.67;75.34
75409;BME280;63979;55.644;37.734;2023-07-13T21:51:39;99211.16;;;15.42;75.73
75409;BME280;63979;55.644;37.734;2023-07-13T21:56:40;99247.44;;;15.65;75.35
75409;BME280;63979;55.644;37.734;2023-07-13T22:01:42;99246.97;;;15.70;75.20
75409;BME280;63979;55.644;37.734;2023-07-13T22:06:43;99220.25;;;15.58;75.45
75409;BME280;63979;55.644;37.734;2023-07-13T22:11:44;99247.22;;;15.76;75.18
75409;BME280;63979;55.644;37.734;2023-07-13T22:16:46;99247.34;;;15.75;75.40
75409;BME280;63979;55.644;37.734;2023-07-13T22:21:47;99242.97;;;15.74;75.29
75409;BME280;63979;55.644;37.734;2023-07-13T22:26:48;99242.97;;;15.74;75.51
75409;BME280;63979;55.644;37.734;2023-07-13T22:31:49;99227.13;;;15.71;75.75
75409;BME280;63979;55.644;37.734;2023-07-13T22:36:51;99249.97;;;15.84;76.68
75409;BME280;63979;55.644;37.734;2023-07-13T22:41:51;99202.53;;;15.56;76.66
75409;BME280;63979;55.644;37.734;2023-07-13T22:46:54;99244.06;;;15.81;78.02
75409;BME280;63979;55.644;37.734;2023-07-13T22:51:57;99238.81;;;15.79;78.11
75409;BME280;63979;55.644;37.734;2023-07-13T22:56:59;99196.88;;;15.59;78.19
75409;BME280;63979;55.644;37.734;2023-07-13T23:02:00;99238.81;;;15.79;78.37
75409;BME280;63979;55.644;37.734;2023-07-13T23:07:03;99200.59;;;15.58;79.13
75409;BME280;63979;55.644;37.734;2023-07-13T23:12:07;99227.06;;;15.80;78.54
75409;BME280;63979;55.644;37.734;2023-07-13T23:17:13;99225.38;;;15.79;78.44
75409;BME280;63979;55.644;37.734;2023-07-13T23:22:26;99233.06;;;15.74;77.23
75409;BME280;63979;55.644;37.734;2023-07-13T23:27:27;99230.53;;;15.73;77.26
75409;BME280;63979;55.644;37.734;2023-07-13T23:32:28;99235.28;;;15.79;77.37
75409;BME280;63979;55.644;37.734;2023-07-13T23:37:29;99231.91;;;15.77;77.82
75409;BME280;63979;55.644;37.734;2023-07-13T23:42:31;99235.81;;;15.65;77.57
75409;BME280;63979;55.644;37.734;2023-07-13T23:47:32;99236.44;;;15.76;76.98
75409;BME280;63979;55.644;37.734;2023-07-13T23:52:33;99237.22;;;15.69;76.97
75409;BME280;63979;55.644;37.734;2023-07-13T23:57:34;99225.84;;;15.75;76.81
